• Join FlightAware (Why Join?)
  • Login
  • US Flag 
12:46AM EDT


 

Airport Tracker/Info


-or-


 

Live Flight TrackerFlight Track Log ✈ AAL8 ✈ 27-Apr-2012 ✈ PHNL - KDFW

Flight Track Log - Related Links

Times and Time Zones

All times are in EDT time to prevent confusion due to time zone crossing. See the AAL8 flight status page for this flight to view local times or setup timezone preferences in your user account.

Time Position Orientation Groundspeed Altitude Reporting Facility
EDT Latitude Longitude Course Direction KTS MPH feet Rate Location/Type
11:07PM 21.3088 -157.8890 230° Southwest  Level FlightAware Approximate
11:08PM 21.3000 -157.9000 148° Southeast 170 196 1,000  Level Honolulu Center
11:09PM 21.2500 -157.8667 126° Southeast 230 265 2,800 2,040 Climbing Honolulu Center
11:10PM 21.2167 -157.8167 102° East 260 299 5,200 2,640 Climbing Honolulu Center
11:11PM 21.2000 -157.7333 102° East 280 322 8,100 2,520 Climbing Honolulu Center
11:12PM 21.1833 -157.6500 70° East 290 334 10,400 1,800 Climbing Honolulu Center
11:13PM 21.2167 -157.5500 62° Northeast 350 403 11,800 1,860 Climbing Honolulu Center
11:14PM 21.2667 -157.4500 54° Northeast 390 449 14,200 2,220 Climbing Honolulu Center
11:15PM 21.3333 -157.3500 54° Northeast 410 472 16,300 2,100 Climbing Honolulu Center
11:16PM 21.4000 -157.2500 58° Northeast 420 483 18,500 1,980 Climbing Honolulu Center
11:17PM 21.4667 -157.1333 62° Northeast 430 495 20,400 1,680 Climbing Honolulu Center
11:18PM 21.5167 -157.0333 54° Northeast 440 506 21,900 1,920 Climbing Honolulu Center
11:19PM 21.5833 -156.9333 52° Northeast 450 518 24,300 1,920 Climbing Honolulu Center
11:20PM 21.6667 -156.8167 58° Northeast 450 518 25,800 1,500 Climbing Honolulu Center
11:21PM 21.7333 -156.7000 52° Northeast 460 529 27,400 1,620 Climbing Honolulu Center
11:22PM 21.8167 -156.5833 58° Northeast 470 541 29,100 1,680 Climbing Honolulu Center
11:23PM 21.8833 -156.4667 58° Northeast 470 541 30,800 1,500 Climbing Honolulu Center
11:24PM 21.9500 -156.3500 52° Northeast 470 541 32,200 1,080 Climbing Honolulu Center
11:25PM 22.0333 -156.2333 58° Northeast 470 541 33,000 360 Climbing Honolulu Center
11:26PM 22.1000 -156.1167 58° Northeast 470 541 33,000  Level Honolulu Center
11:27PM 22.1667 -156.0000 52° Northeast 460 529 33,000  Level Honolulu Center
11:28PM 22.2500 -155.8833 58° Northeast 460 529 33,000  Level Honolulu Center
11:29PM 22.3167 -155.7667 58° Northeast 460 529 33,000  Level Honolulu Center
11:30PM 22.3833 -155.6500 52° Northeast 460 529 33,000  Level Honolulu Center
11:31PM 22.4667 -155.5333 58° Northeast 460 529 33,000  Level Honolulu Center
11:32PM 22.5333 -155.4167 58° Northeast 460 529 33,000  Level Honolulu Center
11:33PM 22.6000 -155.3000 58° Northeast 460 529 33,000  Level Honolulu Center
11:34PM 22.6667 -155.1833 52° Northeast 460 529 33,000  Level Honolulu Center
11:35PM 22.7500 -155.0667 58° Northeast 460 529 33,000  Level Honolulu Center
11:36PM 22.8167 -154.9500 58° Northeast 460 529 33,000  Level Honolulu Center
11:37PM 22.8833 -154.8333 58° Northeast 460 529 33,000  Level Honolulu Center
11:38PM 22.9500 -154.7167 56° Northeast 460 529 33,000  Level Honolulu Center
11:52PM 23.7833 -153.3667 57° Northeast 452 520 33,000  Level Oakland Oceanic (ODAPS)
12:42AM 27.2333 -147.2167 64° Northeast 447 514 33,000  Level Oakland Oceanic (ODAPS)
01:36AM 29.9500 -140.3833 69° East 448 516 33,000  Level Oakland Oceanic (ODAPS)
02:31AM 32.1667 -132.8333 73° East 457 526 35,000  Climbing Oakland Oceanic (ODAPS)
03:26AM 33.9736 -124.5444 76° East 463 533 35,000  Level Los Angeles Center
03:27AM 34.0047 -124.3947 79° East 473 544 35,000 120 Level Los Angeles Center
03:28AM 34.0297 -124.2417 84° East 473 544 35,300 900 Climbing Los Angeles Center
03:29AM 34.0422 -124.0850 86° East 468 539 36,800 840 Climbing Los Angeles Center
03:30AM 34.0506 -123.9253 86° East 463 533 37,000 60 Climbing Los Angeles Center
03:31AM 34.0603 -123.7708 85° East 463 533 37,000  Level Los Angeles Center
03:32AM 34.0719 -123.6164 86° East 458 527 37,000  Level Los Angeles Center
03:33AM 34.0814 -123.4619 87° East 458 527 37,000  Level Los Angeles Center
03:34AM 34.0883 -123.3094 86° East 458 527 37,000  Level Los Angeles Center
03:35AM 34.0975 -123.1547 85° East 458 527 37,000  Level Los Angeles Center
03:36AM 34.1083 -123.0000 86° East 458 527 37,000  Level Los Angeles Center
03:37AM 34.1172 -122.8428 85° East 458 527 37,000  Level Los Angeles Center
03:38AM 34.1278 -122.6881 84° East 458 527 37,000  Level Los Angeles Center
03:39AM 34.1403 -122.5311 87° East 458 527 37,000  Level Los Angeles Center
03:40AM 34.1475 -122.3533 87° East 465 535 37,000  Level Los Angeles Center
03:41AM 34.1553 -122.1958 85° East 465 535 37,000  Level Los Angeles Center
03:42AM 34.1672 -122.0386 88° East 465 535 37,000  Level Los Angeles Center
03:43AM 34.1728 -121.8783 85° East 470 541 37,000  Level Los Angeles Center
03:44AM 34.1844 -121.7208 87° East 470 541 37,000  Level Los Angeles Center
03:45AM 34.1917 -121.5631 86° East 470 541 37,000  Level Los Angeles Center
03:46AM 34.2006 -121.4056 88° East 475 547 37,000  Level Los Angeles Center
03:47AM 34.2056 -121.2425 86° East 475 547 37,000  Level Los Angeles Center
03:48AM 34.2139 -121.0872 87° East 475 547 37,000  Level Los Angeles Center
03:49AM 34.2206 -120.9244 87° East 475 547 37,000  Level Los Angeles Center
03:50AM 34.2267 -120.7664 86° East 475 547 37,000  Level Los Angeles Center
03:51AM 34.2347 -120.6061 88° East 475 547 37,000  Level Los Angeles Center
03:52AM 34.2386 -120.4431 89° East 475 547 37,000  Level Los Angeles Center
03:53AM 34.2411 -120.3050 89° East 475 547 37,000  Level Los Angeles Center
03:54AM 34.2444 -120.1444 93° East 469 540 37,000  Level Los Angeles Center
03:55AM 34.2372 -119.9856 84° East 475 547 37,000  Level Los Angeles Center
03:56AM 34.2503 -119.8306 85° East 470 541 37,000  Level Los Angeles Center
03:57AM 34.2619 -119.6550 82° East 470 541 37,000  Level Los Angeles Center
03:58AM 34.2789 -119.5000 85° East 475 547 37,000  Level Los Angeles Center
03:59AM 34.2914 -119.3394 84° East 475 547 37,000  Level Los Angeles Center
04:00AM 34.3058 -119.1817 84° East 475 547 37,000  Level Los Angeles Center
04:01AM 34.3203 -119.0211 84° East 480 552 37,000  Level Los Angeles Center
04:02AM 34.3319 -118.8808 84° East 480 552 37,000  Level Los Angeles Center
04:03AM 34.3458 -118.7203 84° East 480 552 37,000  Level Los Angeles Center
04:04AM 34.3597 -118.5594 84° East 480 552 37,000  Level Los Angeles Center
04:05AM 34.3731 -118.3989 86° East 480 552 37,000  Level Los Angeles Center
04:06AM 34.3825 -118.2356 85° East 480 552 37,000  Level Los Angeles Center
04:07AM 34.3933 -118.0747 86° East 480 552 37,000  Level Los Angeles Center
04:08AM 34.4022 -117.9139 85° East 475 547 37,000  Level Los Angeles Center
04:09AM 34.4128 -117.7503 85° East 475 547 37,000  Level Los Angeles Center
04:10AM 34.4231 -117.5919 85° East 475 547 37,000 120 Level Los Angeles Center
04:11AM 34.4356 -117.4308 87° East 475 547 37,300 480 Climbing Los Angeles Center
04:12AM 34.4433 -117.2697 86° East 480 552 38,000 660 Climbing Los Angeles Center
04:13AM 34.4531 -117.1111 86° East 480 552 38,700 480 Climbing Los Angeles Center
04:14AM 34.4625 -116.9500 85° East 480 552 39,000 120 Climbing Los Angeles Center
04:15AM 34.4742 -116.7914 86° East 480 552 39,000  Level Los Angeles Center
04:16AM 34.4833 -116.6100 86° East 480 552 39,000  Level Los Angeles Center
04:17AM 34.4922 -116.4489 84° East 480 552 39,000  Level Los Angeles Center
04:18AM 34.5050 -116.2875 87° East 480 552 39,000  Level Los Angeles Center
04:19AM 34.5114 -116.1264 86° East 480 552 39,000  Level Los Angeles Center
04:20AM 34.5197 -115.9650 87° East 480 552 39,000  Level Los Angeles Center
04:21AM 34.5278 -115.8011 86° East 480 552 39,000  Level Los Angeles Center
04:22AM 34.5375 -115.6369 87° East 480 552 39,000  Level Los Angeles Center
04:23AM 34.5450 -115.4681 87° East 485 558 39,000  Level Los Angeles Center
04:24AM 34.5525 -115.3042 86° East 490 564 39,000  Level Los Angeles Center
04:25AM 34.5617 -115.1375 87° East 490 564 39,000  Level Los Angeles Center
04:26AM 34.5686 -114.9733 87° East 490 564 39,000  Level Los Angeles Center
04:28AM 34.5828 -114.6367 87° East 502 578 39,000  Level Albuquerque Center
04:29AM 34.5919 -114.4506 88° East 502 578 39,000  Level Albuquerque Center
04:30AM 34.5975 -114.2822 88° East 497 572 39,000  Level Albuquerque Center
04:31AM 34.6028 -114.1186 87° East 497 572 39,000  Level Albuquerque Center
04:32AM 34.6103 -113.9475 88° East 497 572 39,000  Level Albuquerque Center
04:33AM 34.6153 -113.7789 88° East 497 572 39,000  Level Albuquerque Center
04:34AM 34.6200 -113.6075 87° East 497 572 39,000  Level Albuquerque Center
04:35AM 34.6264 -113.4442 88° East 497 572 39,000  Level Albuquerque Center
04:36AM 34.6308 -113.2753 88° East 497 572 39,000  Level Albuquerque Center
04:37AM 34.6347 -113.1064 87° East 497 572 39,000  Level Albuquerque Center
04:38AM 34.6408 -112.9378 89° East 497 572 39,000  Level Albuquerque Center
04:39AM 34.6442 -112.7714 88° East 497 572 39,000  Level Albuquerque Center
04:40AM 34.6497 -112.6025 89° East 497 572 39,000  Level Albuquerque Center
04:41AM 34.6525 -112.4361 88° East 497 572 39,000  Level Albuquerque Center
04:42AM 34.6569 -112.2847 89° East 497 572 39,000  Level Albuquerque Center
04:43AM 34.6594 -112.1183 88° East 492 566 39,000  Level Albuquerque Center
04:44AM 34.6639 -111.9494 89° East 492 566 39,000  Level Albuquerque Center
04:45AM 34.6661 -111.7803 89° East 497 572 39,000  Level Albuquerque Center
04:46AM 34.6681 -111.6139 88° East 497 572 39,000  Level Albuquerque Center
04:47AM 34.6719 -111.4422 88° East 497 572 39,000  Level Albuquerque Center
04:48AM 34.6758 -111.2606 89° East 497 572 39,000  Level Albuquerque Center
04:49AM 34.6772 -111.0889 88° East 497 572 39,000  Level Albuquerque Center
04:50AM 34.6817 -110.9375 90° East 497 572 39,000  Level Albuquerque Center
04:51AM 34.6825 -110.7683 91° East 497 572 39,000  Level Albuquerque Center
04:52AM 34.6792 -110.5889 89° East 513 590 39,000  Level Albuquerque Center
04:53AM 34.6817 -110.4172 90° East 513 590 39,000  Level Albuquerque Center
04:54AM 34.6819 -110.2303 89° East 513 590 39,000  Level Albuquerque Center
04:55AM 34.6839 -110.0561 89° East 513 590 39,000  Level Albuquerque Center
04:56AM 34.6853 -109.9047 90° East 508 585 39,000  Level Albuquerque Center
04:57AM 34.6850 -109.7153 90° East 508 585 39,000  Level Albuquerque Center
04:58AM 34.6842 -109.5408 91° East 514 592 39,000  Level Albuquerque Center
04:59AM 34.6825 -109.3867 90° East 514 592 39,000  Level Albuquerque Center
05:00AM 34.6833 -109.2125 91° East 514 592 39,000  Level Albuquerque Center
05:01AM 34.6797 -109.0356 88° East 514 592 39,000  Level Albuquerque Center
05:02AM 34.6842 -108.8639 92° East 514 592 39,000  Level Albuquerque Center
05:03AM 34.6797 -108.6897 90° East 514 592 39,000  Level Albuquerque Center
05:04AM 34.6794 -108.5178 92° East 514 592 39,000  Level Albuquerque Center
05:05AM 34.6747 -108.3461 99° East 514 592 39,000  Level Albuquerque Center
05:06AM 34.6511 -108.1742 96° East 514 592 39,000  Level Albuquerque Center
05:07AM 34.6353 -108.0047 96° East 514 592 39,000  Level Albuquerque Center
05:08AM 34.6175 -107.8153 97° East 514 592 39,000  Level Albuquerque Center
05:09AM 34.5992 -107.6436 98° East 514 592 39,000  Level Albuquerque Center
05:10AM 34.5808 -107.4772 98° East 507 583 39,000  Level Albuquerque Center
05:11AM 34.5619 -107.3233 98° East 506 582 39,000  Level Albuquerque Center
05:12AM 34.5408 -107.1392 98° East 506 582 39,000  Level Albuquerque Center
05:13AM 34.5217 -106.9731 97° East 506 582 39,000  Level Albuquerque Center
05:14AM 34.5044 -106.8117 98° East 491 565 39,000  Level Albuquerque Center
05:15AM 34.4847 -106.6406 102° East 492 566 39,000  Level Albuquerque Center
05:16AM 34.4586 -106.4897 98° East 497 572 39,000  Level Albuquerque Center
05:17AM 34.4386 -106.3211 97° East 508 585 39,000  Level Albuquerque Center
05:18AM 34.4203 -106.1400 99° East 497 572 39,000  Level Albuquerque Center
05:19AM 34.3975 -105.9692 99° East 504 580 39,000  Level Albuquerque Center
05:20AM 34.3789 -105.8211 100° East 499 574 39,000  Level Albuquerque Center
05:21AM 34.3536 -105.6506 99° East 509 586 39,000  Level Albuquerque Center
05:22AM 34.3325 -105.4875 99° East 500 575 39,000  Level Albuquerque Center
05:23AM 34.3108 -105.3169 99° East 505 581 39,000  Level Albuquerque Center
05:24AM 34.2892 -105.1492 99° East 499 574 39,000  Level Albuquerque Center
05:25AM 34.2672 -104.9789 100° East 510 587 39,000  Level Albuquerque Center
05:26AM 34.2428 -104.8136 99° East 504 580 39,000  Level Albuquerque Center
05:27AM 34.2203 -104.6411 100° East 504 580 39,000  Level Albuquerque Center
05:28AM 34.1931 -104.4561 99° East 504 580 39,000  Level Albuquerque Center
05:29AM 34.1700 -104.2889 99° East 504 580 39,000  Level Albuquerque Center
05:30AM 34.1467 -104.1142 100° East 509 586 39,000  Level Albuquerque Center
05:31AM 34.1233 -103.9519 100° East 504 580 39,000  Level Albuquerque Center
05:32AM 34.0975 -103.7775 99° East 504 580 39,000  Level Albuquerque Center
05:33AM 34.0756 -103.6103 100° East 504 580 39,000  Level Albuquerque Center
05:35AM 34.0208 -103.2392 100° East 500 575 39,000  Level Fort Worth Center
05:36AM 33.9953 -103.0722 100° East 506 582 39,000  Level Fort Worth Center
05:37AM 33.9728 -102.9206 102° East 502 578 39,000  Level Fort Worth Center
05:38AM 33.9411 -102.7358 101° East 502 578 39,000  Level Fort Worth Center
05:39AM 33.9161 -102.5867 100° East 502 578 39,000  Level Fort Worth Center
05:40AM 33.8881 -102.3997 100° East 515 593 39,000  Level Fort Worth Center
05:41AM 33.8650 -102.2486 101° East 510 587 39,000  Level Fort Worth Center
05:42AM 33.8364 -102.0669 99° East 510 587 39,000  Level Fort Worth Center
05:43AM 33.8150 -101.9108 101° East 510 587 39,000  Level Fort Worth Center
05:44AM 33.7839 -101.7217 103° East 523 602 39,000  Level Fort Worth Center
05:45AM 33.7519 -101.5553 100° East 515 593 39,000  Level Fort Worth Center
05:46AM 33.7261 -101.3867 101° East 509 586 39,000  Level Fort Worth Center
05:47AM 33.6981 -101.2183 102° East 509 586 39,000  Level Fort Worth Center
05:48AM 33.6675 -101.0522 101° East 515 593 39,000  Level Fort Worth Center
05:49AM 33.6389 -100.8814 101° East 515 593 39,000  Level Fort Worth Center
05:50AM 33.6122 -100.7133 102° East 510 587 39,000  Level Fort Worth Center
05:51AM 33.5847 -100.5625 102° East 510 587 39,000  Level Fort Worth Center
05:52AM 33.5556 -100.3969 101° East 510 587 39,000  Level Fort Worth Center
05:53AM 33.5281 -100.2317 102° East 510 587 39,000  Level Fort Worth Center
05:54AM 33.4964 -100.0539 102° East 505 581 39,000  Level Fort Worth Center
05:55AM 33.4664 -99.8886 103° East 500 575 39,000 -240 Level Fort Worth Center
05:56AM 33.4361 -99.7258 101° East 500 575 38,600 -780 Descending Fort Worth Center
05:57AM 33.4097 -99.5636 103° East 500 575 37,500 -1,620 Descending Fort Worth Center
05:58AM 33.3792 -99.4011 103° East 494 568 35,400 -2,460 Descending Fort Worth Center
05:59AM 33.3481 -99.2361 103° East 494 568 32,600 -2,760 Descending Fort Worth Center
06:00AM 33.3150 -99.0714 102° East 494 568 29,900 -2,400 Descending Fort Worth Center
06:01AM 33.2856 -98.9119 102° East 494 568 27,800 -2,100 Descending Fort Worth Center
06:02AM 33.2583 -98.7600 102° East 482 555 25,700 -2,100 Descending Fort Worth Center
06:03AM 33.2306 -98.6106 102° East 468 539 23,600 -2,100 Descending Fort Worth Center
06:04AM 33.2047 -98.4686 105° East 457 526 21,600 -1,980 Descending Fort Worth Center
06:05AM 33.1744 -98.3292 104° East 427 491 19,700 -1,860 Descending Fort Worth Center
06:06AM 33.1503 -98.2100 101° East 416 479 17,900 -2,040 Descending Fort Worth Center
06:07AM 33.1322 -98.1022 106° East 408 470 16,200 -2,100 Descending FAA TRACON SMA TRACON (SMA)
06:08AM 33.1144 -98.0258 101° East 390 449 15,000 -1,800 Descending FAA TRACON SMA TRACON (SMA)
06:08AM 33.1003 -97.9386 90° East 385 443 13,900 -1,380 Descending FAA TRACON SMA TRACON (SMA)
06:09AM 33.1006 -97.8606 87° East 386 444 13,200 -1,380 Descending FAA TRACON SMA TRACON (SMA)
06:10AM 33.1039 -97.7739 86° East 380 437 12,100 -1,800 Descending FAA TRACON SMA TRACON (SMA)
06:10AM 33.1089 -97.6875 87° East 378 435 10,800 -1,320 Descending FAA TRACON SMA TRACON (SMA)
06:11AM 33.1122 -97.6072 85° East 354 407 10,300 -540 Descending FAA TRACON SMA TRACON (SMA)
06:12AM 33.1172 -97.5439 86° East 312 359 10,100 -960 Descending FAA TRACON SMA TRACON (SMA)
06:12AM 33.1208 -97.4778 87° East 290 334 9,100 -1,380 Descending FAA TRACON SMA TRACON (SMA)
06:13AM 33.1239 -97.4172 87° East 296 341 8,300 -1,260 Descending FAA TRACON SMA TRACON (SMA)
06:14AM 33.1267 -97.3500 93° East 295 339 7,400 -1,440 Descending FAA TRACON SMA TRACON (SMA)
06:14AM 33.1242 -97.2839 92° East 289 333 6,400 -1,800 Descending FAA TRACON SMA TRACON (SMA)
06:15AM 33.1225 -97.2253 89° East 287 330 5,000 -2,160 Descending FAA TRACON SMA TRACON (SMA)
06:16AM 33.1233 -97.1586 100° East 290 334 3,500 -1,440 Descending FAA TRACON SMA TRACON (SMA)
06:16AM 33.1147 -97.1025 115° Southeast 253 291 3,100 -420 Descending FAA TRACON SMA TRACON (SMA)
06:17AM 33.0992 -97.0633 142° Southeast 211 243 3,000 -120 Descending FAA TRACON SMA TRACON (SMA)
06:18AM 33.0706 -97.0369 171° South 184 212 3,000 -120 Level FAA TRACON SMA TRACON (SMA)
06:18AM 33.0408 -97.0314 179° South 158 182 2,900 -480 Descending FAA TRACON SMA TRACON (SMA)
06:19AM 33.0144 -97.0308 181° South 152 175 2,400 -720 Descending FAA TRACON SMA TRACON (SMA)
06:20AM 32.9897 -97.0311 179° South 125 144 2,000 -720 Descending FAA TRACON SMA TRACON (SMA)
06:20AM 32.9661 -97.0308 179° South 123 142 1,500 -780 Descending FAA TRACON SMA TRACON (SMA)